createdAt,value
2023-01-11T00:01:59.460Z,8.90
2023-01-11T00:04:30.422Z,8.83
2023-01-11T00:06:57.885Z,8.88
2023-01-11T00:09:24.696Z,8.88
2023-01-11T00:11:51.650Z,8.95
2023-01-11T00:14:18.558Z,8.94
2023-01-11T00:16:45.238Z,8.79
2023-01-11T00:19:12.117Z,8.94
2023-01-11T00:21:38.964Z,8.93
2023-01-11T00:24:06.063Z,8.93
2023-01-11T00:26:32.859Z,9.04
2023-01-11T00:28:59.543Z,8.99
2023-01-11T00:31:26.210Z,9.09
2023-01-11T00:33:53.023Z,9.08
2023-01-11T00:36:19.780Z,9.17
2023-01-11T00:38:54.042Z,9.04
2023-01-11T00:41:41.360Z,9.18
2023-01-11T00:44:29.265Z,9.18
2023-01-11T00:47:14.774Z,9.19
2023-01-11T00:49:41.973Z,9.24
2023-01-11T00:52:09.767Z,9.11
2023-01-11T00:54:40.741Z,9.25
2023-01-11T00:57:08.700Z,9.25
2023-01-11T00:59:36.515Z,9.24
2023-01-11T01:02:04.145Z,9.34
2023-01-11T01:04:31.276Z,9.31
2023-01-11T01:06:58.112Z,9.23
2023-01-11T01:09:25.174Z,9.29
2023-01-11T01:11:51.814Z,9.35
2023-01-11T01:14:31.033Z,9.28
2023-01-11T01:17:03.823Z,9.42
2023-01-11T01:19:31.531Z,9.29
2023-01-11T01:21:59.331Z,9.30
2023-01-11T01:24:30.921Z,9.49
2023-01-11T01:26:58.657Z,9.23
2023-01-11T01:29:25.847Z,9.52
2023-01-11T01:31:52.541Z,9.52
2023-01-11T01:34:19.275Z,9.53
2023-01-11T01:36:45.976Z,9.46
2023-01-11T01:39:13.328Z,9.56
2023-01-11T01:41:40.269Z,9.47
2023-01-11T01:44:44.486Z,9.63
2023-01-11T01:47:11.889Z,9.54
2023-01-11T01:49:39.065Z,9.55
2023-01-11T01:52:06.137Z,9.55
2023-01-11T01:54:39.496Z,9.73
2023-01-11T01:57:12.384Z,9.67
2023-01-11T01:59:39.285Z,9.76
2023-01-11T02:02:06.031Z,9.61
2023-01-11T02:04:38.894Z,9.69
2023-01-11T02:07:14.691Z,9.73
2023-01-11T02:09:51.369Z,9.82
2023-01-11T02:12:19.140Z,9.85
2023-01-11T02:14:47.465Z,9.85
2023-01-11T02:17:14.185Z,9.68
2023-01-11T02:20:05.778Z,9.91
2023-01-11T02:22:47.346Z,9.92
2023-01-11T02:25:38.762Z,9.94
2023-01-11T02:28:30.006Z,9.96
2023-01-11T02:31:08.928Z,9.99
2023-01-11T02:34:11.095Z,10.01
2023-01-11T02:37:04.958Z,10.01
2023-01-11T02:39:31.562Z,10.04
2023-01-11T02:42:24.297Z,10.05
2023-01-11T02:45:06.455Z,10.00
2023-01-11T02:47:57.350Z,10.08
2023-01-11T02:50:43.825Z,10.08
2023-01-11T02:53:49.029Z,10.10
2023-01-11T02:56:25.794Z,10.13
2023-01-11T02:58:56.271Z,10.09
2023-01-11T03:01:23.499Z,9.80
2023-01-11T03:03:51.549Z,10.15
2023-01-11T03:06:21.103Z,10.21
2023-01-11T03:09:15.173Z,10.02
2023-01-11T03:12:03.435Z,10.26
2023-01-11T03:14:45.085Z,10.29
2023-01-11T03:17:45.265Z,10.30
2023-01-11T03:20:25.515Z,10.31
2023-01-11T03:23:13.966Z,10.31
2023-01-11T03:25:47.397Z,10.33
2023-01-11T03:28:36.926Z,10.36
2023-01-11T03:31:19.333Z,10.38
2023-01-11T03:34:04.072Z,10.41
2023-01-11T03:36:40.333Z,10.33
2023-01-11T03:39:19.432Z,10.46
2023-01-11T03:41:48.677Z,10.37
2023-01-11T03:44:18.327Z,10.44
2023-01-11T03:46:49.209Z,10.50
2023-01-11T03:49:22.850Z,10.53
2023-01-11T03:51:52.220Z,10.52
2023-01-11T03:54:23.426Z,10.54
2023-01-11T03:57:06.469Z,10.39
2023-01-11T03:59:33.933Z,10.43
2023-01-11T04:02:01.326Z,10.45
2023-01-11T04:04:28.403Z,10.54
2023-01-11T04:06:55.212Z,10.57
2023-01-11T04:09:22.128Z,10.65
2023-01-11T04:11:48.892Z,10.50
2023-01-11T04:14:15.755Z,10.71
2023-01-11T04:16:42.857Z,10.71
2023-01-11T04:19:09.613Z,10.60
2023-01-11T04:21:36.315Z,10.76
2023-01-11T04:24:02.975Z,10.80
2023-01-11T04:26:29.721Z,10.77
2023-01-11T04:28:56.442Z,10.68
2023-01-11T04:31:23.163Z,10.83
2023-01-11T04:33:49.919Z,10.86
2023-01-11T04:36:16.661Z,10.78
2023-01-11T04:38:43.521Z,10.69
2023-01-11T04:41:28.494Z,10.55
2023-01-11T04:43:58.851Z,10.92
2023-01-11T04:46:25.695Z,10.92
2023-01-11T04:48:52.806Z,10.78
2023-01-11T04:51:19.591Z,10.79
2023-01-11T04:53:48.220Z,10.89
2023-01-11T04:56:16.325Z,10.94
2023-01-11T04:58:43.488Z,10.66
2023-01-11T05:01:16.764Z,10.89
2023-01-11T05:03:45.473Z,10.94
2023-01-11T05:06:13.343Z,10.75
2023-01-11T05:08:40.362Z,10.86
2023-01-11T05:11:08.326Z,10.81
2023-01-11T05:13:44.291Z,10.75
2023-01-11T05:16:12.203Z,10.92
2023-01-11T05:18:44.457Z,10.83
2023-01-11T05:21:13.806Z,10.89
2023-01-11T05:23:41.369Z,10.84
2023-01-11T05:26:17.800Z,10.88
2023-01-11T05:28:46.145Z,10.80
2023-01-11T05:31:13.307Z,10.84
2023-01-11T05:33:40.078Z,10.45
2023-01-11T05:36:11.810Z,10.65
2023-01-11T05:38:38.507Z,10.81
2023-01-11T05:41:08.441Z,10.57
2023-01-11T05:43:58.777Z,10.64
2023-01-11T05:46:27.297Z,10.79
2023-01-11T05:48:59.220Z,10.72
2023-01-11T05:51:26.676Z,10.76
2023-01-11T05:53:53.495Z,10.66
2023-01-11T05:56:20.269Z,10.42
2023-01-11T05:58:51.006Z,10.74
2023-01-11T06:01:20.228Z,10.71
2023-01-11T06:03:47.329Z,10.52
2023-01-11T06:06:15.115Z,10.63
2023-01-11T06:08:41.988Z,10.66
2023-01-11T06:11:08.932Z,10.56
2023-01-11T06:13:36.084Z,10.41
2023-01-11T06:16:05.992Z,10.25
2023-01-11T06:18:35.179Z,10.24
2023-01-11T06:21:02.182Z,10.46
2023-01-11T06:23:30.246Z,10.44
2023-01-11T06:26:00.647Z,10.33
2023-01-11T06:28:28.385Z,10.41
2023-01-11T06:30:56.539Z,10.37
2023-01-11T06:33:25.480Z,10.31
2023-01-11T06:35:52.723Z,10.21
2023-01-11T06:38:22.064Z,10.22
2023-01-11T06:41:15.866Z,10.20
2023-01-11T06:43:42.696Z,10.20
2023-01-11T06:46:14.910Z,10.09
2023-01-11T06:48:43.232Z,10.00
2023-01-11T06:51:12.934Z,10.08
2023-01-11T06:53:41.791Z,10.03
2023-01-11T06:56:12.493Z,10.12
2023-01-11T06:58:39.659Z,10.09
2023-01-11T07:01:06.622Z,9.99
2023-01-11T07:03:33.639Z,9.88
2023-01-11T07:06:01.497Z,9.86
2023-01-11T07:08:28.539Z,10.04
2023-01-11T07:10:55.514Z,9.93
2023-01-11T07:13:22.707Z,9.74
2023-01-11T07:15:50.825Z,10.07
2023-01-11T07:18:19.762Z,10.08
2023-01-11T07:20:47.138Z,9.96
2023-01-11T07:23:13.921Z,9.87
2023-01-11T07:25:41.394Z,9.93
2023-01-11T07:28:08.943Z,10.03
2023-01-11T07:30:55.330Z,9.98
2023-01-11T07:33:22.814Z,9.99
2023-01-11T07:35:49.833Z,9.97
2023-01-11T07:38:16.676Z,9.99
2023-01-11T07:40:43.505Z,9.81
2023-01-11T07:43:14.667Z,9.94
2023-01-11T07:45:46.175Z,9.96
2023-01-11T07:48:14.440Z,9.95
2023-01-11T07:50:44.588Z,9.83
2023-01-11T07:53:11.923Z,9.57
2023-01-11T07:55:39.883Z,9.69
2023-01-11T07:58:07.596Z,9.79
2023-01-11T08:00:34.503Z,9.79
2023-01-11T08:03:02.224Z,9.81
2023-01-11T08:05:29.345Z,9.59
2023-01-11T08:07:56.099Z,9.93
2023-01-11T08:10:23.005Z,9.83
2023-01-11T08:13:12.060Z,9.92
2023-01-11T08:15:42.469Z,9.92
2023-01-11T08:18:11.417Z,9.73
2023-01-11T08:20:39.313Z,9.91
2023-01-11T08:23:08.103Z,9.96
2023-01-11T08:25:35.097Z,9.89
2023-01-11T08:28:05.915Z,9.86
2023-01-11T08:30:33.342Z,9.67
2023-01-11T08:33:04.438Z,9.76
2023-01-11T08:35:36.816Z,9.67
2023-01-11T08:38:03.598Z,9.56
2023-01-11T08:40:30.323Z,9.51
2023-01-11T08:42:57.648Z,9.48
2023-01-11T08:45:25.527Z,9.37
2023-01-11T08:47:52.795Z,9.34
2023-01-11T08:50:19.934Z,9.36
2023-01-11T08:52:48.278Z,9.16
2023-01-11T08:55:15.130Z,9.27
2023-01-11T08:57:41.969Z,9.07
2023-01-11T09:00:09.357Z,9.13
2023-01-11T09:02:36.114Z,9.15
2023-01-11T09:05:03.311Z,9.08
2023-01-11T09:07:30.112Z,9.06
2023-01-11T09:09:56.801Z,8.91
2023-01-11T09:12:23.653Z,9.00
2023-01-11T09:14:50.503Z,9.10
2023-01-11T09:17:17.189Z,9.09
2023-01-11T09:19:44.048Z,9.23
2023-01-11T09:22:11.557Z,9.14
2023-01-11T09:24:38.285Z,9.28
2023-01-11T09:27:05.221Z,9.26
2023-01-11T09:29:32.892Z,9.05
2023-01-11T09:32:00.642Z,9.25
2023-01-11T09:34:27.686Z,9.48
2023-01-11T09:36:56.819Z,9.75
2023-01-11T09:39:26.405Z,9.90
2023-01-11T09:42:29.525Z,10.14
2023-01-11T09:45:18.585Z,10.10
2023-01-11T09:47:48.977Z,10.14
2023-01-11T09:50:41.214Z,10.25
2023-01-11T09:53:14.587Z,10.38
2023-01-11T09:55:45.851Z,10.51
2023-01-11T09:58:32.591Z,10.60
2023-01-11T10:01:03.342Z,10.49
2023-01-11T10:03:36.153Z,10.31
2023-01-11T10:06:37.748Z,10.15
2023-01-11T10:18:26.287Z,9.73
2023-01-11T10:18:43.343Z,9.76
2023-01-11T10:21:42.725Z,9.70
2023-01-11T10:24:21.698Z,9.64
2023-01-11T10:26:51.296Z,9.58
2023-01-11T10:29:58.435Z,9.63
2023-01-11T10:32:54.428Z,9.43
2023-01-11T10:35:59.048Z,9.61
2023-01-11T10:39:08.108Z,9.66
2023-01-11T10:41:49.040Z,9.78
2023-01-11T10:44:24.610Z,9.64
2023-01-11T10:46:53.915Z,10.06
2023-01-11T10:49:35.651Z,10.13
2023-01-11T10:52:15.108Z,10.18
2023-01-11T10:54:46.895Z,10.01
2023-01-11T10:57:23.250Z,10.14
2023-01-11T10:59:56.381Z,10.27
2023-01-11T11:02:42.713Z,10.30
2023-01-11T11:05:28.206Z,10.33
2023-01-11T11:08:01.002Z,10.34
2023-01-11T11:10:53.892Z,10.35
2023-01-11T11:13:32.611Z,10.41
2023-01-11T11:16:17.930Z,10.42
2023-01-11T11:18:45.272Z,10.38
2023-01-11T11:21:22.655Z,10.23
2023-01-11T11:24:02.374Z,10.29
2023-01-11T11:26:38.430Z,10.28
2023-01-11T11:29:10.679Z,10.21
2023-01-11T11:31:44.316Z,10.21
2023-01-11T11:34:17.573Z,10.15
2023-01-11T11:36:46.788Z,9.92
2023-01-11T11:39:27.355Z,10.01
2023-01-11T11:41:56.457Z,9.95
2023-01-11T11:44:28.434Z,9.88
2023-01-11T11:47:07.002Z,9.81
2023-01-11T11:49:35.948Z,9.77
2023-01-11T11:52:04.916Z,9.82
2023-01-11T11:54:36.192Z,9.83
2023-01-11T11:57:42.528Z,9.91
2023-01-11T12:00:31.058Z,10.01
2023-01-11T12:03:10.914Z,9.95
2023-01-11T12:05:37.791Z,9.99
2023-01-11T12:08:04.805Z,10.14
2023-01-11T12:10:32.545Z,9.61
2023-01-11T12:13:02.194Z,9.92
2023-01-11T12:15:33.906Z,10.18
2023-01-11T12:18:38.319Z,10.20
2023-01-11T12:21:19.020Z,10.24
2023-01-11T12:23:46.792Z,10.26
2023-01-11T12:26:20.783Z,10.32
2023-01-11T12:29:05.002Z,10.38
2023-01-11T12:32:01.185Z,10.41
2023-01-11T12:34:30.842Z,10.43
2023-01-11T12:37:15.912Z,10.46
2023-01-11T12:40:13.645Z,10.48
2023-01-11T12:43:04.661Z,10.47
2023-01-11T12:45:40.846Z,10.44
2023-01-11T12:48:13.171Z,10.40
2023-01-11T12:50:58.152Z,10.37
2023-01-11T12:53:31.989Z,10.01
2023-01-11T12:56:20.403Z,10.36
2023-01-11T12:58:56.196Z,10.33
2023-01-11T13:01:38.169Z,10.36
2023-01-11T13:04:40.079Z,10.30
2023-01-11T13:07:32.783Z,10.32
2023-01-11T13:10:57.343Z,10.16
2023-01-11T13:21:32.222Z,10.07
2023-01-11T13:24:06.458Z,10.03
2023-01-11T13:26:45.924Z,9.97
2023-01-11T13:29:25.744Z,9.94
2023-01-11T13:31:54.966Z,9.88
2023-01-11T13:34:32.999Z,9.81
2023-01-11T13:37:06.658Z,9.98
2023-01-11T13:39:42.764Z,10.00
2023-01-11T13:42:17.746Z,10.04
2023-01-11T13:44:51.676Z,9.94
2023-01-11T13:47:29.409Z,9.95
2023-01-11T13:50:05.562Z,10.12
2023-01-11T13:52:50.164Z,10.15
2023-01-11T13:55:26.782Z,10.16
2023-01-11T13:58:06.594Z,10.06
2023-01-11T14:00:52.561Z,10.06
2023-01-11T14:03:40.142Z,10.06
2023-01-11T14:06:39.933Z,9.99
2023-01-11T14:09:52.100Z,9.94
2023-01-11T14:13:05.113Z,9.91
2023-01-11T14:15:40.548Z,9.85
2023-01-11T14:18:13.647Z,9.88
2023-01-11T14:20:55.875Z,9.91
2023-01-11T14:23:53.097Z,9.89
2023-01-11T14:26:57.745Z,9.90
2023-01-11T14:29:49.422Z,9.92
2023-01-11T14:32:40.470Z,9.87
2023-01-11T14:35:42.352Z,9.88
2023-01-11T14:38:28.999Z,9.69
2023-01-11T14:41:46.506Z,9.83
2023-01-11T14:44:45.904Z,9.80
2023-01-11T14:47:36.919Z,9.80
2023-01-11T14:50:13.127Z,9.78
2023-01-11T14:52:42.113Z,9.76
2023-01-11T14:55:23.006Z,9.66
2023-01-11T14:57:55.406Z,9.73
2023-01-11T15:00:22.103Z,9.69
2023-01-11T15:03:01.109Z,9.64
2023-01-11T15:05:33.466Z,9.60
2023-01-11T15:08:15.654Z,9.56
2023-01-11T15:10:45.152Z,9.52
2023-01-11T15:13:23.158Z,9.47
2023-01-11T15:16:10.108Z,9.40
2023-01-11T15:18:46.356Z,9.27
2023-01-11T15:21:21.573Z,9.30
2023-01-11T15:23:54.705Z,9.32
2023-01-11T15:26:23.480Z,9.26
2023-01-11T15:28:56.597Z,9.21
2023-01-11T15:31:58.569Z,9.26
2023-01-11T15:34:28.982Z,9.22
2023-01-11T15:37:02.452Z,9.17
2023-01-11T15:39:39.842Z,9.11
2023-01-11T15:42:15.480Z,9.08
2023-01-11T15:45:10.170Z,9.02
2023-01-11T15:47:49.792Z,8.97
2023-01-11T15:50:59.350Z,8.92
2023-01-11T15:53:42.028Z,8.80
2023-01-11T15:56:39.169Z,8.85
2023-01-11T15:59:30.489Z,8.84
2023-01-11T16:02:18.730Z,8.83
2023-01-11T16:05:06.242Z,8.85
2023-01-11T16:07:44.986Z,8.71
2023-01-11T16:10:31.046Z,8.70
2023-01-11T16:13:15.402Z,8.84
2023-01-11T16:15:51.001Z,8.82
2023-01-11T16:18:23.124Z,8.80
2023-01-11T16:21:04.021Z,8.66
2023-01-11T16:23:32.643Z,8.53
2023-01-11T16:26:00.695Z,8.69
2023-01-11T16:28:28.478Z,8.72
2023-01-11T16:31:01.990Z,8.52
2023-01-11T16:33:31.705Z,8.62
2023-01-11T16:36:12.231Z,8.53
2023-01-11T16:38:56.642Z,8.39
2023-01-11T16:41:27.728Z,8.37
2023-01-11T16:44:01.522Z,8.44
2023-01-11T16:46:46.481Z,8.41
2023-01-11T16:49:19.724Z,8.42
2023-01-11T16:51:48.566Z,8.40
2023-01-11T16:54:30.916Z,8.49
2023-01-11T16:56:59.429Z,8.13
2023-01-11T16:59:30.845Z,8.33
2023-01-11T17:02:06.231Z,8.59
2023-01-11T17:04:36.438Z,8.61
2023-01-11T17:07:13.949Z,8.48
2023-01-11T17:09:43.755Z,8.61
2023-01-11T17:12:17.104Z,8.59
2023-01-11T17:14:56.141Z,8.62
2023-01-11T17:17:23.681Z,8.62
2023-01-11T17:19:50.862Z,8.52
2023-01-11T17:22:29.578Z,8.64
2023-01-11T17:25:07.095Z,8.66
2023-01-11T17:27:41.605Z,8.66
2023-01-11T17:30:21.638Z,8.64
2023-01-11T17:32:54.657Z,8.44
2023-01-11T17:35:24.185Z,8.56
2023-01-11T17:37:54.769Z,8.56
2023-01-11T17:40:24.999Z,8.57
2023-01-11T17:43:11.062Z,8.54
2023-01-11T17:45:38.697Z,8.47
2023-01-11T17:48:14.394Z,8.46
2023-01-11T17:50:54.651Z,8.47
2023-01-11T17:53:26.916Z,8.44
2023-01-11T17:55:57.663Z,8.27
2023-01-11T17:58:42.301Z,8.49
2023-01-11T18:01:23.376Z,8.35
2023-01-11T18:03:57.218Z,8.31
2023-01-11T18:06:36.537Z,8.50
2023-01-11T18:09:07.030Z,8.49
2023-01-11T18:11:38.837Z,8.48
2023-01-11T18:14:16.317Z,8.48
2023-01-11T18:17:22.673Z,8.48
2023-01-11T18:19:49.516Z,8.45
2023-01-11T18:22:54.499Z,8.31
2023-01-11T18:25:22.212Z,8.20
2023-01-11T18:27:49.670Z,8.51
2023-01-11T18:30:31.759Z,8.57
2023-01-11T18:33:01.955Z,8.52
2023-01-11T18:35:29.471Z,8.57
2023-01-11T18:37:56.780Z,8.46
2023-01-11T18:40:23.504Z,8.42
2023-01-11T18:42:52.480Z,8.18
2023-01-11T18:45:20.391Z,8.41
2023-01-11T18:47:47.306Z,8.35
2023-01-11T18:50:14.250Z,8.58
2023-01-11T18:52:41.183Z,8.46
2023-01-11T18:55:11.728Z,8.22
2023-01-11T18:57:38.389Z,8.59
2023-01-11T19:00:05.610Z,8.61
2023-01-11T19:02:42.413Z,8.43
2023-01-11T19:05:15.546Z,8.64
2023-01-11T19:07:42.486Z,8.65
2023-01-11T19:10:13.650Z,8.67
2023-01-11T19:12:41.290Z,8.70
2023-01-11T19:15:08.370Z,8.63
2023-01-11T19:17:35.516Z,8.33
2023-01-11T19:20:02.418Z,8.73
2023-01-11T19:22:29.114Z,8.70
2023-01-11T19:24:55.991Z,8.73
2023-01-11T19:27:23.477Z,8.80
2023-01-11T19:29:50.231Z,8.76
2023-01-11T19:32:18.505Z,8.72
2023-01-11T19:34:45.212Z,8.84
2023-01-11T19:37:11.953Z,8.77
2023-01-11T19:39:40.192Z,8.57
2023-01-11T19:42:07.090Z,8.73
2023-01-11T19:44:35.984Z,8.73
2023-01-11T19:47:12.417Z,8.69
2023-01-11T19:49:40.771Z,8.48
2023-01-11T19:52:19.122Z,8.61
2023-01-11T19:54:47.062Z,8.57
2023-01-11T19:57:20.400Z,8.45
2023-01-11T19:59:48.369Z,8.23
2023-01-11T20:02:17.896Z,8.42
2023-01-11T20:04:44.570Z,8.25
2023-01-11T20:07:13.006Z,8.05
2023-01-11T20:09:39.882Z,8.27
2023-01-11T20:12:08.696Z,8.43
2023-01-11T20:14:36.501Z,8.21
2023-01-11T20:17:03.336Z,8.18
2023-01-11T20:19:30.082Z,8.10
2023-01-11T20:21:56.970Z,8.23
2023-01-11T20:24:28.521Z,8.31
2023-01-11T20:27:00.943Z,8.35
2023-01-11T20:29:27.944Z,8.25
2023-01-11T20:31:55.116Z,8.35
2023-01-11T20:34:22.111Z,8.24
2023-01-11T20:36:49.153Z,8.35
2023-01-11T20:39:15.857Z,8.26
2023-01-11T20:41:51.721Z,8.35
2023-01-11T20:44:27.842Z,8.26
2023-01-11T20:46:56.346Z,8.33
2023-01-11T20:49:25.240Z,8.33
2023-01-11T20:51:52.057Z,8.22
2023-01-11T20:54:19.312Z,8.30
2023-01-11T20:56:48.913Z,8.32
2023-01-11T20:59:19.153Z,8.35
2023-01-11T21:01:50.101Z,8.26
2023-01-11T21:04:18.588Z,8.23
2023-01-11T21:06:50.028Z,8.37
2023-01-11T21:09:18.213Z,8.39
2023-01-11T21:11:52.485Z,8.30
2023-01-11T21:14:20.099Z,8.31
2023-01-11T21:16:46.882Z,8.32
2023-01-11T21:19:15.450Z,8.40
2023-01-11T21:21:42.552Z,8.34
2023-01-11T21:24:12.420Z,8.38
2023-01-11T21:26:39.513Z,8.25
2023-01-11T21:29:06.577Z,8.43
2023-01-11T21:31:36.079Z,8.26
2023-01-11T21:34:03.571Z,8.44
2023-01-11T21:36:31.764Z,8.38
2023-01-11T21:39:00.123Z,8.45
2023-01-11T21:41:48.009Z,8.33
2023-01-11T21:44:15.837Z,8.47
2023-01-11T21:46:43.132Z,8.39
2023-01-11T21:49:10.904Z,8.41
2023-01-11T21:51:38.083Z,8.29
2023-01-11T21:54:07.223Z,8.51
2023-01-11T21:56:34.617Z,8.44
2023-01-11T21:59:01.859Z,8.53
2023-01-11T22:01:29.000Z,8.37
2023-01-11T22:03:55.917Z,8.41
2023-01-11T22:06:23.087Z,8.55
2023-01-11T22:08:50.017Z,8.37
2023-01-11T22:11:17.803Z,8.56
2023-01-11T22:13:45.110Z,8.55
2023-01-11T22:16:17.599Z,8.52
2023-01-11T22:18:45.892Z,8.50
2023-01-11T22:21:15.422Z,8.39
2023-01-11T22:23:42.219Z,8.37
2023-01-11T22:26:14.757Z,8.23
2023-01-11T22:29:00.928Z,8.39
2023-01-11T22:31:29.804Z,8.34
2023-01-11T22:33:56.973Z,8.18
2023-01-11T22:36:25.236Z,8.36
2023-01-11T22:38:53.093Z,8.35
2023-01-11T22:41:20.470Z,8.42
2023-01-11T22:43:48.069Z,8.47
2023-01-11T22:46:18.405Z,8.37
2023-01-11T22:48:47.157Z,8.34
2023-01-11T22:51:15.138Z,8.45
2023-01-11T22:53:44.823Z,8.56
2023-01-11T22:56:13.316Z,8.55
2023-01-11T22:58:39.972Z,8.52
2023-01-11T23:01:24.476Z,8.59
2023-01-11T23:03:52.160Z,8.52
2023-01-11T23:06:43.770Z,8.56
2023-01-11T23:09:16.222Z,8.54
2023-01-11T23:12:02.138Z,8.54
2023-01-11T23:14:30.832Z,8.50
2023-01-11T23:17:07.492Z,8.47
2023-01-11T23:19:39.453Z,8.54
2023-01-11T23:22:07.819Z,8.49
2023-01-11T23:24:37.139Z,8.48
2023-01-11T23:27:04.804Z,8.46
2023-01-11T23:29:31.630Z,8.42
2023-01-11T23:31:58.645Z,8.53
2023-01-11T23:34:25.358Z,8.48
2023-01-11T23:36:52.158Z,8.39
2023-01-11T23:39:19.406Z,8.50
2023-01-11T23:42:05.360Z,8.33
2023-01-11T23:44:32.255Z,8.50
2023-01-11T23:47:17.798Z,8.54
2023-01-11T23:49:45.705Z,8.52
2023-01-11T23:52:12.552Z,8.50
2023-01-11T23:54:39.408Z,8.37
2023-01-11T23:57:06.549Z,8.50
2023-01-11T23:59:33.353Z,8.41
